createdAt,value
2023-05-24T17:22:31.478Z,10.90
2023-05-24T17:25:01.096Z,11.10
2023-05-24T17:27:30.976Z,10.40
2023-05-24T17:30:00.699Z,10.07
2023-05-24T17:32:31.653Z,9.85
2023-05-24T17:35:01.649Z,10.27
2023-05-24T17:37:33.133Z,9.38
2023-05-24T17:40:04.077Z,9.88
2023-05-24T17:42:34.070Z,11.52
2023-05-24T17:45:05.098Z,10.98
2023-05-24T17:47:35.400Z,9.65
2023-05-24T17:50:05.761Z,9.48
2023-05-24T17:52:37.078Z,10.13
2023-05-24T17:55:08.014Z,9.80
2023-05-24T17:57:37.978Z,10.05
2023-05-24T18:00:09.334Z,10.35
2023-05-24T18:02:48.711Z,10.13
2023-05-24T18:05:19.320Z,10.32
2023-05-24T18:07:50.854Z,9.80
2023-05-24T18:10:21.085Z,10.23
2023-05-24T18:12:50.949Z,10.02
2023-05-24T18:15:21.537Z,9.85
2023-05-24T18:17:51.828Z,10.38
2023-05-24T18:20:24.562Z,10.40
2023-05-24T18:22:56.222Z,9.98
2023-05-24T18:25:26.139Z,9.63
2023-05-24T18:27:56.112Z,9.48
2023-05-24T18:30:26.690Z,10.27
2023-05-24T18:33:07.165Z,11.13
2023-05-24T18:35:38.628Z,10.50
2023-05-24T18:38:10.198Z,10.43
2023-05-24T18:40:40.208Z,10.05
2023-05-24T18:43:10.188Z,11.00
2023-05-24T18:45:40.407Z,11.27
2023-05-24T18:48:10.605Z,10.98
2023-05-24T18:50:40.869Z,10.65
2023-05-24T18:53:12.872Z,12.05
2023-05-24T18:55:43.231Z,11.40
2023-05-24T18:58:13.405Z,10.73
2023-05-24T19:00:43.379Z,10.85
2023-05-24T19:03:13.806Z,11.10
2023-05-24T19:05:44.435Z,10.35
2023-05-24T19:08:15.835Z,10.73
2023-05-24T19:10:45.840Z,11.00
2023-05-24T19:13:16.347Z,10.45
2023-05-24T19:15:46.468Z,11.43
2023-05-24T19:18:16.448Z,11.68
2023-05-24T19:20:46.356Z,11.00
2023-05-24T19:23:17.909Z,11.32
2023-05-24T19:25:50.558Z,11.07
2023-05-24T19:28:20.772Z,12.07
2023-05-24T19:30:50.690Z,10.73
2023-05-24T19:33:20.611Z,12.10
2023-05-24T19:35:53.859Z,12.48
2023-05-24T19:38:26.613Z,11.07
2023-05-24T19:40:58.166Z,11.77
2023-05-24T19:43:32.760Z,12.23
2023-05-24T19:46:06.178Z,11.52
2023-05-24T19:48:38.802Z,11.50
2023-05-24T19:51:09.601Z,10.70
2023-05-24T19:53:42.365Z,11.10
2023-05-24T19:56:12.861Z,11.53
2023-05-24T19:58:44.287Z,11.57
2023-05-24T20:01:14.895Z,13.40
2023-05-24T20:03:48.975Z,11.10
2023-05-24T20:06:19.690Z,12.57
2023-05-24T20:08:51.106Z,12.20
2023-05-24T20:11:20.667Z,12.10
2023-05-24T20:13:52.791Z,12.70
2023-05-24T20:16:23.328Z,12.00
2023-05-24T20:18:52.809Z,12.43
2023-05-24T20:21:22.143Z,12.60
2023-05-24T20:23:57.961Z,12.17
2023-05-24T20:26:28.365Z,12.07
2023-05-24T20:28:57.901Z,12.20
2023-05-24T20:31:28.081Z,12.93
2023-05-24T20:33:57.728Z,12.17
2023-05-24T20:36:27.055Z,13.00
2023-05-24T20:38:57.772Z,12.90
2023-05-24T20:41:30.639Z,12.93
2023-05-24T20:43:59.938Z,12.30
2023-05-24T20:46:29.445Z,13.10
2023-05-24T20:48:58.901Z,12.83
2023-05-24T20:51:28.446Z,12.80
2023-05-24T20:53:59.167Z,13.33
2023-05-24T20:56:28.409Z,14.30
2023-05-24T20:59:02.482Z,14.97
2023-05-24T21:01:31.774Z,14.67
2023-05-24T21:04:01.527Z,13.63
2023-05-24T21:06:34.166Z,13.53
2023-05-24T21:09:05.081Z,13.57
2023-05-24T21:11:34.543Z,13.73
2023-05-24T21:14:03.876Z,14.07
2023-05-24T21:16:33.574Z,13.57
2023-05-24T21:19:02.978Z,13.00
2023-05-24T21:21:32.205Z,12.73
2023-05-24T21:24:01.724Z,13.63
2023-05-24T21:26:33.022Z,13.33
2023-05-24T21:29:02.506Z,13.83
2023-05-24T21:31:32.256Z,13.83
2023-05-24T21:34:01.493Z,13.77
2023-05-24T21:36:30.905Z,14.70
2023-05-24T21:39:00.784Z,14.00
2023-05-24T21:41:31.685Z,14.13
2023-05-24T21:44:00.898Z,13.83
2023-05-24T21:46:30.579Z,14.50
2023-05-24T21:48:59.864Z,13.70
2023-05-24T21:51:29.269Z,13.57
2023-05-24T21:53:58.653Z,14.40
2023-05-24T21:56:28.488Z,13.30
2023-05-24T21:58:59.256Z,13.97
2023-05-24T22:01:29.153Z,14.30
2023-05-24T22:03:58.573Z,14.40
2023-05-24T22:06:27.852Z,14.37
2023-05-24T22:09:01.939Z,14.53
2023-05-24T22:11:31.601Z,14.03
2023-05-24T22:14:02.620Z,15.10
2023-05-24T22:16:31.856Z,15.00
2023-05-24T22:19:01.479Z,15.00
2023-05-24T22:21:33.535Z,16.17
2023-05-24T22:24:02.730Z,17.77
2023-05-24T22:26:31.985Z,15.53
2023-05-24T22:29:04.120Z,15.13
2023-05-24T22:31:34.885Z,15.00
2023-05-24T22:34:04.116Z,15.93
2023-05-24T22:36:34.459Z,15.43
2023-05-24T22:39:03.954Z,15.57
2023-05-24T22:41:33.437Z,16.20
2023-05-24T22:44:04.056Z,16.10
2023-05-24T22:46:33.385Z,16.73
2023-05-24T22:49:03.292Z,15.97
2023-05-24T22:51:32.484Z,15.93
2023-05-24T22:54:01.791Z,18.10
2023-05-24T22:56:32.485Z,16.90
2023-05-24T22:59:01.683Z,17.77
2023-05-24T23:01:32.529Z,16.90
2023-05-24T23:04:11.490Z,15.97
2023-05-24T23:06:47.849Z,16.77
2023-05-24T23:09:17.889Z,16.17
2023-05-24T23:11:47.250Z,16.73
2023-05-24T23:14:17.270Z,17.77
2023-05-24T23:16:48.024Z,17.53
2023-05-24T23:19:18.882Z,16.67
2023-05-24T23:21:48.458Z,17.07
2023-05-24T23:24:17.834Z,16.93
2023-05-24T23:26:47.097Z,18.10
2023-05-24T23:29:16.416Z,18.27
2023-05-24T23:31:47.441Z,17.63
2023-05-24T23:34:16.746Z,17.50
2023-05-24T23:36:46.065Z,17.80
2023-05-24T23:39:15.303Z,18.70
2023-05-24T23:41:44.597Z,18.23
2023-05-24T23:44:14.195Z,18.57
2023-05-24T23:46:43.592Z,17.57
2023-05-24T23:49:14.284Z,19.93
2023-05-24T23:51:43.463Z,18.10
2023-05-24T23:54:14.886Z,18.87
2023-05-24T23:56:44.178Z,18.40
2023-05-24T23:59:13.536Z,19.87
